Time;durP1;ratioP1;P1;durP2;ratioP2;P2;SDS_P1;SDS_P2;PMS_P1;PMS_P2;Temp;Humidity;BMP_temperature;BMP_pressure;BME280_temperature;BME280_humidity;BME280_pressure;Samples;Min_cycle;Max_cycle;Signal;HPM_P1;HPM_P2
2022/03/10 00:01:29;;;;;;;16.77;9.40;;;4.20;66.70;;;;;;5013152;28;20052;-82
2022/03/10 00:04:03;;;;;;;17.60;8.73;;;4.20;66.80;;;;;;5027163;28;20024;-82
2022/03/10 00:06:50;;;;;;;15.60;8.43;;;4.20;66.80;;;;;;5048049;28;21418;-82
2022/03/10 00:09:28;;;;;;;18.43;9.67;;;4.20;67.00;;;;;;5022391;28;20383;-83
2022/03/10 00:11:56;;;;;;;16.87;8.30;;;4.10;66.90;;;;;;5032764;28;20135;-83
2022/03/10 00:14:33;;;;;;;15.70;8.63;;;4.10;66.90;;;;;;5054459;28;20044;-82
2022/03/10 00:17:53;;;;;;;13.97;8.00;;;4.10;67.00;;;;;;5035565;28;20051;-82
2022/03/10 00:20:22;;;;;;;15.03;8.57;;;4.00;67.10;;;;;;5055717;28;20050;-82
2022/03/10 00:22:56;;;;;;;13.47;7.53;;;4.00;67.00;;;;;;5037858;28;20044;-82
2022/03/10 00:25:27;;;;;;;15.90;8.00;;;4.00;67.10;;;;;;5035958;28;20044;-81
2022/03/10 00:29:22;;;;;;;;;;;;;;;;;;;;;
2022/03/10 00:32:25;;;;;;;11.90;7.43;;;3.90;67.40;;;;;;5054880;28;20134;-82
2022/03/10 00:35:43;;;;;;;12.57;6.73;;;3.90;67.30;;;;;;5057795;28;20047;-82
2022/03/10 00:38:28;;;;;;;12.30;6.50;;;3.80;67.50;;;;;;5069665;27;21125;-79
2022/03/10 00:42:04;;;;;;;13.40;6.93;;;3.80;67.60;;;;;;5051897;27;20039;-79
2022/03/10 00:44:37;;;;;;;12.93;7.20;;;3.70;67.80;;;;;;5059448;28;20522;-79
2022/03/10 00:47:10;;;;;;;14.43;7.50;;;3.70;67.70;;;;;;5064414;28;20044;-79
2022/03/10 00:49:39;;;;;;;13.10;7.37;;;3.70;67.90;;;;;;5064788;27;20040;-79
2022/03/10 00:52:09;;;;;;;14.80;8.13;;;3.60;68.00;;;;;;5073666;27;20020;-79
2022/03/10 00:54:36;;;;;;;15.47;8.20;;;3.60;68.20;;;;;;5070551;28;20505;-79
2022/03/10 00:57:11;;;;;;;13.67;7.80;;;3.60;68.40;;;;;;5059474;28;20039;-81
2022/03/10 00:59:43;;;;;;;11.43;6.60;;;3.50;68.40;;;;;;5091232;27;20639;-82
2022/03/10 01:02:10;;;;;;;;;;;3.50;68.50;;;;;;5062282;28;20036;-81
2022/03/10 01:04:44;;;;;;;11.03;6.03;;;3.50;68.50;;;;;;5058828;27;19919;-81
2022/03/10 01:07:17;;;;;;;14.80;7.23;;;3.40;68.40;;;;;;5060854;28;20035;-81
2022/03/10 01:09:49;;;;;;;16.17;7.93;;;3.40;68.60;;;;;;5093870;27;20038;-81
2022/03/10 01:12:21;;;;;;;14.17;7.47;;;3.30;68.70;;;;;;5044976;28;20475;-81
2022/03/10 01:14:51;;;;;;;11.60;6.47;;;3.30;68.90;;;;;;5091573;27;20043;-81
2022/03/10 01:17:27;;;;;;;13.67;7.97;;;3.30;69.00;;;;;;5064759;28;20031;-82
2022/03/10 01:19:54;;;;;;;14.57;8.00;;;3.30;69.30;;;;;;5059780;27;20030;-81
2022/03/10 01:22:22;;;;;;;14.53;8.90;;;3.30;69.30;;;;;;5058148;28;20040;-81
2022/03/10 01:24:59;;;;;;;13.73;7.63;;;3.20;69.40;;;;;;5074030;27;20035;-82
2022/03/10 01:27:34;;;;;;;13.43;7.23;;;3.20;69.60;;;;;;5063684;28;20031;-84
2022/03/10 01:30:42;;;;;;;14.10;7.82;;;3.20;69.60;;;;;;5064201;28;20063;-82
2022/03/10 01:33:12;;;;;;;18.67;10.02;;;3.20;69.60;;;;;;5058938;28;20040;-84
2022/03/10 01:35:43;;;;;;;31.47;15.33;;;3.10;69.60;;;;;;5074409;28;20040;-84
2022/03/10 01:38:19;;;;;;;38.03;18.70;;;3.20;69.80;;;;;;5077216;28;20384;-85
2022/03/10 01:40:49;;;;;;;67.10;32.37;;;3.10;69.80;;;;;;5074626;28;20039;-82
2022/03/10 01:43:23;;;;;;;51.63;27.27;;;3.10;69.90;;;;;;5079445;28;20031;-84
2022/03/10 01:46:07;;;;;;;29.30;14.97;;;3.10;69.90;;;;;;5057884;27;20359;-84
2022/03/10 01:48:51;;;;;;;23.30;12.90;;;3.10;70.10;;;;;;5043232;28;20363;-83
2022/03/10 01:51:41;;;;;;;18.83;10.18;;;3.00;70.00;;;;;;5064461;27;20028;-84
2022/03/10 01:54:23;;;;;;;21.23;10.20;;;3.00;70.10;;;;;;5088406;28;20039;-84
2022/03/10 01:57:10;;;;;;;15.83;8.57;;;3.00;70.30;;;;;;5086776;28;20027;-83
2022/03/10 01:59:47;;;;;;;14.97;8.37;;;3.10;70.20;;;;;;5062866;27;20422;-84
2022/03/10 02:02:19;;;;;;;14.20;7.60;;;3.00;70.30;;;;;;5091300;28;20058;-82
2022/03/10 02:04:59;;;;;;;15.40;7.57;;;3.00;70.30;;;;;;5045531;27;20042;-83
2022/03/10 02:11:04;;;;;;;12.10;7.23;;;3.00;70.60;;;;;;5059821;28;20369;-83
2022/03/10 02:19:05;;;;;;;10.57;5.93;;;3.00;70.80;;;;;;4953161;28;20043;-83
2022/03/10 02:22:45;;;;;;;13.83;7.23;;;2.90;70.80;;;;;;4985258;28;20053;-83
2022/03/10 02:27:22;;;;;;;;;;;;;;;;;;;;;
2022/03/10 02:39:35;;;;;;;14.07;6.33;;;2.70;71.30;;;;;;4936133;28;20534;-82
2022/03/10 02:46:59;;;;;;;13.20;6.83;;;2.70;72.00;;;;;;4892319;29;20044;-82
2022/03/10 02:49:31;;;;;;;15.10;6.63;;;2.70;71.40;;;;;;4895261;28;20055;-78
2022/03/10 02:51:58;;;;;;;17.57;7.83;;;2.70;71.50;;;;;;4993999;28;20064;-84
2022/03/10 02:54:28;;;;;;;14.33;7.90;;;2.70;72.20;;;;;;5011389;28;20061;-79
2022/03/10 02:56:59;;;;;;;25.05;11.68;;;2.70;71.70;;;;;;4993691;28;20138;-79
2022/03/10 02:59:27;;;;;;;19.93;10.20;;;2.70;71.80;;;;;;4996389;28;20041;-79
2022/03/10 03:01:56;;;;;;;20.30;9.60;;;2.70;71.90;;;;;;4999498;28;20942;-83
2022/03/10 03:12:55;;;;;;;16.20;8.07;;;2.70;72.20;;;;;;5098356;27;20039;-82
2022/03/10 03:15:44;;;;;;;13.77;7.57;;;2.70;72.10;;;;;;5088404;28;20044;-84
2022/03/10 03:18:50;;;;;;;12.07;6.83;;;2.70;72.20;;;;;;5079661;28;20126;-83
2022/03/10 03:21:58;;;;;;;13.00;6.73;;;2.60;72.90;;;;;;5016986;28;20396;-83
2022/03/10 03:24:25;;;;;;;14.70;7.97;;;2.60;72.30;;;;;;5072317;28;20039;-83
2022/03/10 03:27:01;;;;;;;13.23;6.80;;;2.60;72.50;;;;;;5040851;28;20124;-78
2022/03/10 03:29:39;;;;;;;14.77;7.03;;;2.50;72.60;;;;;;5033021;28;20044;-78
2022/03/10 03:32:21;;;;;;;12.87;6.90;;;2.50;72.70;;;;;;5041878;28;20389;-79
2022/03/10 03:35:00;;;;;;;14.30;7.53;;;2.50;72.80;;;;;;5037095;28;20400;-78
2022/03/10 03:37:51;;;;;;;12.75;6.90;;;2.40;72.90;;;;;;5058855;28;20040;-78
2022/03/10 03:40:34;;;;;;;;;;;2.40;73.00;;;;;;5034561;28;20483;-78
2022/03/10 03:46:11;;;;;;;12.33;6.00;;;2.30;72.90;;;;;;4996295;28;20040;-78
2022/03/10 03:48:56;;;;;;;14.07;7.03;;;2.30;73.00;;;;;;5048923;28;20037;-79
2022/03/10 03:52:01;;;;;;;12.10;6.33;;;2.30;73.00;;;;;;5031524;27;20051;-79
2022/03/10 03:55:00;;;;;;;11.10;5.10;;;2.30;73.10;;;;;;5074502;28;20039;-79
2022/03/10 03:58:19;;;;;;;10.73;5.50;;;2.30;73.10;;;;;;5059280;28;20036;-83
2022/03/10 04:02:06;;;;;;;13.67;7.03;;;2.40;73.20;;;;;;5070539;28;20032;-85
2022/03/10 04:06:49;;;;;;;10.07;4.73;;;2.40;73.30;;;;;;5010595;28;20654;-84
2022/03/10 04:10:24;;;;;;;12.43;6.20;;;2.30;73.30;;;;;;5048005;28;20056;-84
2022/03/10 04:16:59;;;;;;;13.40;6.40;;;2.20;73.40;;;;;;5015578;28;20045;-85
2022/03/10 04:25:08;;;;;;;11.43;6.10;;;2.20;74.00;;;;;;4995484;28;20375;-85
2022/03/10 04:28:30;;;;;;;;;;;;;;;;;;;;;
2022/03/10 04:31:36;;;;;;;10.47;5.33;;;2.10;73.90;;;;;;4971499;28;20038;-85
2022/03/10 04:34:28;;;;;;;13.40;7.00;;;2.10;74.10;;;;;;4979902;28;20044;-85
2022/03/10 04:37:05;;;;;;;13.63;6.82;;;2.00;74.10;;;;;;5019468;28;20037;-85
2022/03/10 04:39:43;;;;;;;11.50;6.53;;;2.00;74.10;;;;;;5019121;28;20048;-85
2022/03/10 04:42:33;;;;;;;14.30;6.60;;;2.00;74.20;;;;;;5026495;28;20090;-84
2022/03/10 04:45:22;;;;;;;13.87;7.33;;;1.90;74.40;;;;;;5044516;28;20059;-85
2022/03/10 04:47:59;;;;;;;14.13;7.20;;;2.00;74.70;;;;;;5022014;28;21201;-85
2022/03/10 04:50:27;;;;;;;12.48;6.65;;;1.90;74.80;;;;;;5016836;28;20051;-85
2022/03/10 04:53:00;;;;;;;15.37;7.93;;;1.90;74.90;;;;;;5041650;28;20055;-84
2022/03/10 04:55:34;;;;;;;12.93;7.00;;;1.80;75.00;;;;;;5057106;28;20046;-84
2022/03/10 04:58:12;;;;;;;13.07;6.77;;;1.80;75.80;;;;;;5050338;28;20036;-84
2022/03/10 05:00:46;;;;;;;14.80;7.07;;;1.80;75.20;;;;;;5039383;28;20047;-84
2022/03/10 05:03:21;;;;;;;13.07;7.00;;;1.80;75.20;;;;;;5055592;28;20028;-84
2022/03/10 05:06:04;;;;;;;12.23;6.60;;;1.70;75.40;;;;;;5061512;28;20037;-84
2022/03/10 05:08:59;;;;;;;13.27;6.67;;;1.70;75.50;;;;;;5070477;28;20036;-84
2022/03/10 05:23:39;;;;;;;15.57;5.97;;;1.70;75.50;;;;;;5038015;28;20407;-85
2022/03/10 05:26:27;;;;;;;;;;;1.70;75.60;;;;;;5072067;28;20415;-84
2022/03/10 05:29:04;;;;;;;12.07;6.20;;;1.70;75.50;;;;;;5094119;28;19917;-84
2022/03/10 05:32:04;;;;;;;14.27;7.03;;;1.70;76.00;;;;;;5058401;28;20067;-84
2022/03/10 05:35:33;;;;;;;;;;;;;;;;;;;;;
2022/03/10 05:38:46;;;;;;;13.53;6.27;;;1.70;75.60;;;;;;5080625;28;20047;-83
2022/03/10 05:41:50;;;;;;;12.57;5.63;;;1.70;75.40;;;;;;5074892;28;20032;-84
2022/03/10 05:44:44;;;;;;;14.10;6.63;;;1.70;75.70;;;;;;5085010;28;20500;-85
2022/03/10 05:47:12;;;;;;;14.93;7.03;;;1.70;75.60;;;;;;5055819;28;20054;-84
2022/03/10 05:49:44;;;;;;;16.47;8.67;;;1.70;75.70;;;;;;5073421;28;20471;-84
2022/03/10 05:52:19;;;;;;;17.42;8.70;;;1.70;75.90;;;;;;5043413;28;20522;-86
2022/03/10 05:54:48;;;;;;;22.53;10.13;;;1.70;76.00;;;;;;5062304;28;20043;-85
2022/03/10 05:57:54;;;;;;;18.13;8.90;;;1.70;76.00;;;;;;5084057;28;20035;-84
2022/03/10 06:00:53;;;;;;;13.93;7.20;;;1.70;76.00;;;;;;5091935;28;20024;-84
2022/03/10 06:03:22;;;;;;;24.40;10.87;;;1.70;75.80;;;;;;5092938;28;20047;-84
2022/03/10 06:05:56;;;;;;;17.50;8.47;;;1.70;75.80;;;;;;5089195;28;20048;-79
2022/03/10 06:09:06;;;;;;;46.83;18.20;;;1.70;75.90;;;;;;5071762;28;20028;-81
2022/03/10 06:11:50;;;;;;;17.70;8.17;;;1.70;75.90;;;;;;5068912;28;20138;-82
2022/03/10 06:14:18;;;;;;;16.37;8.13;;;1.70;75.80;;;;;;5090289;28;20024;-85
2022/03/10 06:16:45;;;;;;;15.30;7.00;;;1.80;75.90;;;;;;5057785;28;20039;-84
2022/03/10 06:19:21;;;;;;;15.10;6.82;;;1.80;75.90;;;;;;5043923;28;20032;-81
2022/03/10 06:21:51;;;;;;;14.60;6.70;;;1.80;75.90;;;;;;5070720;28;20067;-83
2022/03/10 06:24:18;;;;;;;13.87;6.93;;;1.90;75.90;;;;;;5073502;28;20043;-83
2022/03/10 06:26:50;;;;;;;11.53;6.17;;;2.00;75.90;;;;;;5054334;28;20048;-83
2022/03/10 06:30:37;;;;;;;12.50;6.67;;;2.00;75.80;;;;;;5030365;28;20466;-83
2022/03/10 06:34:18;;;;;;;12.80;6.80;;;2.10;75.80;;;;;;5005958;28;20056;-83
2022/03/10 06:37:24;;;;;;;13.90;7.27;;;2.30;75.60;;;;;;5061364;28;20043;-83
2022/03/10 06:39:53;;;;;;;14.17;7.13;;;2.40;75.50;;;;;;5067236;28;20050;-83
2022/03/10 06:45:42;;;;;;;14.40;7.57;;;2.70;75.20;;;;;;5055197;28;20044;-83
2022/03/10 06:48:54;;;;;;;15.10;8.57;;;2.90;75.00;;;;;;5050121;28;20048;-80
2022/03/10 06:51:37;;;;;;;18.17;8.87;;;3.10;74.90;;;;;;5051122;28;20036;-80
2022/03/10 06:57:38;;;;;;;14.27;7.93;;;3.40;74.50;;;;;;5075388;28;20403;-81
2022/03/10 07:00:25;;;;;;;14.83;8.20;;;3.50;74.20;;;;;;5076215;28;20036;-81
2022/03/10 07:02:58;;;;;;;17.27;9.47;;;3.60;74.10;;;;;;5089719;28;20039;-81
2022/03/10 07:06:19;;;;;;;15.25;8.68;;;3.80;73.90;;;;;;5076629;28;20047;-80
2022/03/10 07:12:36;;;;;;;19.20;11.30;;;4.10;73.20;;;;;;5061861;28;20067;-81
2022/03/10 07:15:39;;;;;;;17.27;9.30;;;4.30;72.90;;;;;;5037945;28;20519;-80
2022/03/10 07:18:41;;;;;;;14.63;8.87;;;4.50;72.80;;;;;;5021657;28;20041;-80
2022/03/10 07:21:23;;;;;;;17.30;8.70;;;4.60;72.60;;;;;;5003157;28;20561;-80
2022/03/10 07:23:57;;;;;;;18.57;11.30;;;4.80;72.50;;;;;;5042578;28;20045;-80
2022/03/10 07:27:24;;;;;;;20.30;11.37;;;4.90;72.10;;;;;;5033863;28;20055;-80
2022/03/10 07:30:15;;;;;;;19.40;11.27;;;5.10;71.70;;;;;;5026030;28;20039;-81
2022/03/10 07:33:24;;;;;;;21.53;11.50;;;5.30;71.10;;;;;;5004108;28;20060;-80
2022/03/10 07:38:02;;;;;;;;;;;;;;;;;;;;;
2022/03/10 07:42:05;;;;;;;20.92;13.23;;;5.70;70.20;;;;;;5042329;28;20024;-80
2022/03/10 07:44:56;;;;;;;20.97;13.23;;;5.90;69.10;;;;;;5041430;28;20393;-80
2022/03/10 07:47:56;;;;;;;30.07;14.60;;;5.90;68.80;;;;;;5030487;28;20049;-80
2022/03/10 07:50:57;;;;;;;27.93;15.17;;;6.10;68.20;;;;;;4994086;28;20060;-81
2022/03/10 07:54:57;;;;;;;;;;;;;;;;;;;;;
2022/03/10 07:58:25;;;;;;;;;;;;;;;;;;;;;
2022/03/10 08:01:07;;;;;;;24.10;14.43;;;6.60;67.00;;;;;;5022983;28;20041;-81
2022/03/10 08:04:14;;;;;;;20.17;12.57;;;6.70;66.50;;;;;;5009576;28;20087;-81
2022/03/10 08:07:53;;;;;;;20.00;12.07;;;6.80;66.80;;;;;;5006683;28;20119;-80
2022/03/10 08:18:25;;;;;;;28.57;16.43;;;7.10;66.00;;;;;;5047965;28;20525;-81
2022/03/10 08:21:12;;;;;;;30.97;16.20;;;7.20;65.40;;;;;;5031082;28;20037;-81
2022/03/10 08:24:01;;;;;;;24.17;15.20;;;7.20;65.40;;;;;;5033438;28;20025;-80
2022/03/10 08:27:04;;;;;;;21.57;14.40;;;7.30;65.70;;;;;;5049150;28;20040;-81
2022/03/10 08:29:57;;;;;;;24.75;14.73;;;7.40;65.70;;;;;;5058285;28;20509;-82
2022/03/10 08:32:43;;;;;;;23.05;13.82;;;7.60;65.40;;;;;;5045846;28;20048;-81
2022/03/10 08:35:10;;;;;;;23.15;14.18;;;7.60;65.10;;;;;;5062890;28;20435;-78
2022/03/10 08:37:38;;;;;;;25.52;14.95;;;7.70;65.00;;;;;;5046942;28;20059;-83
2022/03/10 08:40:07;;;;;;;25.58;16.45;;;7.80;65.00;;;;;;5059506;28;20043;-80
2022/03/10 08:42:33;;;;;;;24.48;15.30;;;7.90;64.70;;;;;;5032680;28;20403;-81
2022/03/10 08:45:02;;;;;;;24.85;15.65;;;8.00;64.80;;;;;;5017982;28;20037;-81
2022/03/10 08:47:39;;;;;;;;;;;;;;;;;;;;;
2022/03/10 08:50:11;;;;;;;24.92;15.98;;;8.20;64.50;;;;;;5041506;28;20488;-82
2022/03/10 08:52:39;;;;;;;25.60;14.50;;;8.30;64.30;;;;;;5027378;28;20033;-82
2022/03/10 08:55:10;;;;;;;23.75;14.85;;;8.30;64.40;;;;;;5045625;28;20043;-81
2022/03/10 08:57:50;;;;;;;25.83;16.42;;;8.40;64.70;;;;;;5062880;28;20371;-80
2022/03/10 09:00:55;;;;;;;23.65;15.80;;;8.60;64.50;;;;;;5033728;28;20479;-80
2022/03/10 09:03:38;;;;;;;23.75;15.63;;;8.70;64.40;;;;;;5067231;28;20043;-84
2022/03/10 09:06:50;;;;;;;;;;;8.80;64.20;;;;;;5084587;28;20039;-81
2022/03/10 09:13:00;;;;;;;23.08;14.38;;;8.90;64.20;;;;;;5003650;28;20394;-80
2022/03/10 09:15:52;;;;;;;26.30;15.85;;;9.10;64.40;;;;;;5023726;28;20062;-80
2022/03/10 09:18:25;;;;;;;26.95;15.85;;;9.30;64.50;;;;;;5082782;28;20033;-80
2022/03/10 09:21:14;;;;;;;;;;;;;;;;;;;;;
2022/03/10 09:23:45;;;;;;;28.63;16.83;;;9.50;64.30;;;;;;5082092;28;20110;-81
2022/03/10 09:26:12;;;;;;;19.77;14.18;;;9.60;64.40;;;;;;5060568;28;20459;-81
2022/03/10 09:29:27;;;;;;;25.35;14.90;;;9.70;64.40;;;;;;5060365;28;20028;-81
2022/03/10 09:40:39;;;;;;;19.92;13.20;;;10.30;63.90;;;;;;4924103;28;20049;-81
2022/03/10 09:44:02;;;;;;;24.55;16.85;;;10.50;64.20;;;;;;4955716;28;20058;-81
2022/03/10 09:46:50;;;;;;;24.58;16.20;;;10.70;63.70;;;;;;4960049;28;20065;-81
2022/03/10 09:49:20;;;;;;;23.20;16.13;;;10.80;63.60;;;;;;4953116;28;20073;-81
2022/03/10 09:51:49;;;;;;;20.60;14.38;;;11.00;63.30;;;;;;5021899;28;20048;-82
2022/03/10 09:54:18;;;;;;;21.88;15.00;;;11.10;63.50;;;;;;5030790;28;20048;-82
2022/03/10 09:56:51;;;;;;;32.20;17.48;;;11.30;63.50;;;;;;5017853;28;20106;-82
2022/03/10 09:59:20;;;;;;;25.92;16.42;;;11.50;63.00;;;;;;5037652;28;20047;-82
2022/03/10 10:01:48;;;;;;;26.55;17.30;;;11.70;62.60;;;;;;5082691;28;20042;-82
2022/03/10 10:04:15;;;;;;;24.73;16.60;;;11.80;62.60;;;;;;5052856;28;20039;-81
2022/03/10 10:07:03;;;;;;;29.25;17.77;;;11.90;62.40;;;;;;5071250;28;20032;-81
2022/03/10 10:09:58;;;;;;;23.88;16.58;;;12.00;61.30;;;;;;5063397;28;20598;-81
2022/03/10 10:12:29;;;;;;;25.88;15.98;;;12.10;61.50;;;;;;5060915;28;20044;-81
2022/03/10 10:15:08;;;;;;;27.90;18.08;;;12.30;61.80;;;;;;5080404;28;20051;-81
2022/03/10 10:17:51;;;;;;;22.73;15.40;;;12.50;60.80;;;;;;5066928;28;20050;-81
2022/03/10 10:20:24;;;;;;;27.80;18.88;;;12.50;61.00;;;;;;5075455;28;20032;-83
2022/03/10 10:22:51;;;;;;;24.48;16.73;;;12.60;60.90;;;;;;5062804;28;20035;-81
2022/03/10 10:25:30;;;;;;;23.52;15.77;;;12.70;60.50;;;;;;5081818;28;20036;-81
2022/03/10 10:28:28;;;;;;;24.08;17.23;;;12.90;61.40;;;;;;5062762;28;20044;-81
2022/03/10 10:31:00;;;;;;;28.77;17.48;;;13.20;60.00;;;;;;5077776;28;20028;-81
2022/03/10 10:33:32;;;;;;;23.67;16.42;;;13.40;59.50;;;;;;5065545;28;20047;-82
2022/03/10 10:36:23;;;;;;;28.75;17.92;;;13.60;59.90;;;;;;5049117;28;20063;-81
2022/03/10 10:38:56;;;;;;;27.75;17.17;;;14.00;58.60;;;;;;5065814;28;20032;-81
2022/03/10 10:41:35;;;;;;;25.88;18.05;;;14.30;58.40;;;;;;5080820;28;20027;-83
2022/03/10 10:44:26;;;;;;;24.35;17.58;;;14.60;57.30;;;;;;5062731;28;20044;-82
2022/03/10 10:50:42;;;;;;;22.27;15.07;;;15.20;56.10;;;;;;5054896;28;20037;-81
2022/03/10 10:54:06;;;;;;;28.80;18.42;;;15.50;56.50;;;;;;5080389;28;20044;-81
2022/03/10 10:57:21;;;;;;;23.20;17.35;;;15.90;54.30;;;;;;5057606;28;20059;-81
2022/03/10 11:00:12;;;;;;;24.55;16.92;;;16.10;53.60;;;;;;5040277;28;20404;-81
2022/03/10 11:03:19;;;;;;;24.23;16.90;;;16.30;54.30;;;;;;5013567;28;20053;-80
2022/03/10 11:05:48;;;;;;;26.30;16.90;;;16.70;54.20;;;;;;5025351;28;20481;-80
2022/03/10 11:08:17;;;;;;;22.40;15.98;;;17.10;53.40;;;;;;5043916;28;20127;-79
2022/03/10 11:10:44;;;;;;;23.55;17.65;;;17.50;52.90;;;;;;5027442;28;20029;-79
2022/03/10 11:13:13;;;;;;;25.77;17.55;;;17.70;52.20;;;;;;5045200;28;20056;-80
2022/03/10 11:15:42;;;;;;;22.45;17.05;;;17.90;50.80;;;;;;5027828;28;20043;-83
2022/03/10 11:18:13;;;;;;;21.00;16.30;;;18.00;50.50;;;;;;5039100;28;20036;-82
2022/03/10 11:20:50;;;;;;;22.57;17.00;;;18.10;50.50;;;;;;5042194;28;20384;-83
2022/03/10 11:23:37;;;;;;;23.15;16.92;;;18.30;50.50;;;;;;5043406;28;20483;-82
2022/03/10 11:26:41;;;;;;;25.73;17.13;;;18.50;49.00;;;;;;5036950;28;20040;-81
2022/03/10 11:29:11;;;;;;;21.05;16.67;;;18.70;49.00;;;;;;5047303;28;20043;-81
2022/03/10 11:31:39;;;;;;;22.40;16.20;;;18.90;48.80;;;;;;5066906;28;20037;-82
2022/03/10 11:34:52;;;;;;;22.15;15.90;;;19.00;48.00;;;;;;5054196;28;20044;-81
2022/03/10 11:37:56;;;;;;;21.73;16.42;;;19.20;47.70;;;;;;5034566;28;20045;-81
2022/03/10 11:40:42;;;;;;;22.90;17.55;;;19.30;47.00;;;;;;5062693;28;20049;-82
2022/03/10 11:43:37;;;;;;;24.83;17.42;;;19.30;46.80;;;;;;5015046;28;22171;-80
2022/03/10 11:46:28;;;;;;;20.50;16.38;;;19.40;46.20;;;;;;5047981;28;20616;-81
2022/03/10 11:49:25;;;;;;;20.67;14.98;;;19.50;46.30;;;;;;5067166;28;20136;-82
2022/03/10 11:55:50;;;;;;;23.65;19.17;;;20.10;46.50;;;;;;5030518;28;20656;-81
2022/03/10 11:58:45;;;;;;;20.00;15.68;;;20.40;44.20;;;;;;5041286;28;20033;-81
2022/03/10 12:01:19;;;;;;;;;;;20.30;44.40;;;;;;5042000;28;20571;-77
2022/03/10 12:03:55;;;;;;;21.67;17.63;;;20.50;44.20;;;;;;5047181;28;19931;-78
2022/03/10 12:06:40;;;;;;;21.92;16.70;;;20.30;43.20;;;;;;5044235;28;21641;-80
2022/03/10 12:09:18;;;;;;;21.83;15.00;;;20.10;43.60;;;;;;5062648;28;20406;-81
2022/03/10 12:12:34;;;;;;;21.13;16.20;;;20.30;44.10;;;;;;5046832;28;20029;-81
2022/03/10 12:15:41;;;;;;;22.15;17.05;;;20.70;43.70;;;;;;5022739;28;20060;-80
2022/03/10 12:18:38;;;;;;;24.73;15.90;;;21.20;42.90;;;;;;5003219;28;20045;-80
2022/03/10 12:21:31;;;;;;;21.25;16.63;;;21.40;42.20;;;;;;5031862;28;20131;-79
2022/03/10 12:24:06;;;;;;;23.40;17.63;;;21.80;41.90;;;;;;5011122;28;20064;-79
2022/03/10 12:26:54;;;;;;;23.80;18.00;;;22.00;41.00;;;;;;5025919;28;20048;-80
2022/03/10 12:29:22;;;;;;;19.58;15.73;;;22.10;40.30;;;;;;5022010;28;20029;-80
2022/03/10 12:31:54;;;;;;;18.67;15.00;;;22.10;40.40;;;;;;5024098;28;20029;-80
2022/03/10 12:34:25;;;;;;;19.52;14.90;;;22.50;41.10;;;;;;5036381;28;20033;-81
2022/03/10 12:37:15;;;;;;;26.70;17.05;;;22.90;40.80;;;;;;5007720;28;20099;-78
2022/03/10 12:39:47;;;;;;;20.58;16.83;;;23.30;39.50;;;;;;5002607;28;20172;-78
2022/03/10 12:42:16;;;;;;;20.85;16.42;;;23.60;38.70;;;;;;5021295;28;20037;-79
2022/03/10 12:44:52;;;;;;;18.98;15.70;;;23.80;38.30;;;;;;4999559;28;20033;-79
2022/03/10 12:47:20;;;;;;;18.25;15.38;;;23.90;38.20;;;;;;5064314;28;20356;-78
2022/03/10 12:49:50;;;;;;;20.85;16.38;;;24.00;36.50;;;;;;5063241;28;20033;-77
2022/03/10 12:52:25;;;;;;;20.85;16.02;;;24.00;37.20;;;;;;5048485;28;20029;-78
2022/03/10 12:54:52;;;;;;;19.67;15.30;;;24.10;37.40;;;;;;5051573;28;20029;-78
2022/03/10 12:57:18;;;;;;;21.17;15.93;;;24.40;36.50;;;;;;5043982;28;20040;-77
2022/03/10 12:59:45;;;;;;;18.83;14.65;;;24.30;35.70;;;;;;5062384;28;20099;-76
2022/03/10 13:02:26;;;;;;;18.75;15.25;;;24.10;36.50;;;;;;5035202;28;20432;-77
2022/03/10 13:04:58;;;;;;;20.13;15.18;;;24.40;36.90;;;;;;5063521;28;20047;-78
2022/03/10 13:07:29;;;;;;;18.80;15.18;;;24.70;37.10;;;;;;5035983;28;20037;-78
2022/03/10 13:10:00;;;;;;;23.05;15.88;;;25.10;36.20;;;;;;5050713;28;20036;-78
2022/03/10 13:12:33;;;;;;;22.30;17.05;;;25.10;35.10;;;;;;5034102;28;20045;-79
2022/03/10 13:15:01;;;;;;;23.52;16.35;;;25.10;34.80;;;;;;5050580;28;20041;-78
2022/03/10 13:17:39;;;;;;;19.13;15.33;;;24.90;34.60;;;;;;5052717;28;20036;-78
2022/03/10 13:20:25;;;;;;;19.38;16.20;;;24.80;35.20;;;;;;5066877;28;20266;-79
2022/03/10 13:22:59;;;;;;;19.73;14.73;;;24.70;34.80;;;;;;5032229;28;20037;-78
2022/03/10 13:25:36;;;;;;;21.17;15.57;;;24.70;35.50;;;;;;5053487;28;20044;-77
2022/03/10 13:28:07;;;;;;;23.05;15.73;;;24.70;35.10;;;;;;5053249;28;20028;-77
2022/03/10 13:30:35;;;;;;;19.55;15.27;;;24.50;35.20;;;;;;5054648;28;20036;-80
2022/03/10 13:33:10;;;;;;;20.70;16.17;;;23.60;35.90;;;;;;5051633;28;20033;-78
2022/03/10 13:35:40;;;;;;;;;;;22.40;37.10;;;;;;5066476;28;20028;-76
2022/03/10 13:38:08;;;;;;;21.08;16.73;;;21.20;38.50;;;;;;5065601;28;19909;-77
2022/03/10 13:40:35;;;;;;;20.85;15.23;;;20.20;39.80;;;;;;5060178;28;20364;-77
2022/03/10 13:43:04;;;;;;;24.73;17.27;;;19.40;40.90;;;;;;5067338;28;20035;-76
2022/03/10 13:45:43;;;;;;;22.25;15.35;;;18.80;42.00;;;;;;5046928;28;20020;-77
2022/03/10 13:48:22;;;;;;;22.33;15.25;;;18.20;42.90;;;;;;5062480;28;20040;-77
2022/03/10 13:50:51;;;;;;;20.02;13.98;;;17.70;43.60;;;;;;5045818;28;20036;-78
2022/03/10 13:53:17;;;;;;;25.83;17.70;;;17.40;44.10;;;;;;5030334;28;20041;-79
2022/03/10 13:55:51;;;;;;;25.40;17.65;;;17.20;45.10;;;;;;5065428;28;20040;-79
2022/03/10 13:58:18;;;;;;;25.08;16.80;;;16.90;45.40;;;;;;5090044;28;20028;-78
2022/03/10 14:00:48;;;;;;;25.10;16.80;;;16.60;45.90;;;;;;5081287;28;20028;-79
2022/03/10 14:03:17;;;;;;;23.63;16.65;;;16.40;46.30;;;;;;5072647;28;20063;-80
2022/03/10 14:05:53;;;;;;;27.00;17.52;;;16.20;46.70;;;;;;5066546;28;20048;-79
2022/03/10 14:08:21;;;;;;;24.25;15.68;;;16.00;47.30;;;;;;5086184;28;20036;-80
2022/03/10 14:11:04;;;;;;;24.38;16.30;;;15.90;47.70;;;;;;5065819;28;20490;-79
2022/03/10 14:13:34;;;;;;;20.63;13.43;;;15.80;48.10;;;;;;5081399;28;20052;-79
2022/03/10 14:16:08;;;;;;;23.45;14.18;;;15.60;48.10;;;;;;5086022;28;20032;-79
2022/03/10 14:18:37;;;;;;;20.13;13.10;;;15.50;48.60;;;;;;5101744;27;20046;-79
2022/03/10 14:21:06;;;;;;;18.25;12.63;;;15.50;49.00;;;;;;5033190;28;20032;-80
2022/03/10 14:23:33;;;;;;;20.00;13.27;;;15.50;49.60;;;;;;5068815;28;20031;-79
2022/03/10 14:26:15;;;;;;;19.92;13.55;;;15.50;49.30;;;;;;5083332;28;20024;-79
2022/03/10 14:28:44;;;;;;;20.17;14.13;;;15.50;49.40;;;;;;5069641;28;20470;-79
2022/03/10 14:31:17;;;;;;;20.20;12.65;;;15.40;49.30;;;;;;5047067;28;20572;-79
2022/03/10 14:33:48;;;;;;;22.33;13.23;;;15.40;49.30;;;;;;5079131;28;20039;-79
2022/03/10 14:36:19;;;;;;;21.17;13.65;;;15.30;49.60;;;;;;5080041;28;20051;-79
2022/03/10 14:38:47;;;;;;;20.98;13.32;;;15.30;49.90;;;;;;5049248;28;20035;-79
2022/03/10 14:41:26;;;;;;;23.27;13.75;;;15.30;50.00;;;;;;5077495;28;20046;-80
2022/03/10 14:43:53;;;;;;;23.70;14.52;;;15.30;50.40;;;;;;5065489;28;20028;-79
2022/03/10 14:46:19;;;;;;;21.25;14.05;;;15.30;50.20;;;;;;5065767;28;20032;-79
2022/03/10 14:48:46;;;;;;;24.08;14.10;;;15.20;50.20;;;;;;5051511;28;20032;-79
2022/03/10 14:51:14;;;;;;;23.42;13.50;;;15.20;50.50;;;;;;5079233;28;20024;-79
2022/03/10 14:53:41;;;;;;;22.40;14.63;;;15.20;50.90;;;;;;5052772;28;20033;-79
2022/03/10 14:56:07;;;;;;;24.70;15.45;;;15.10;50.90;;;;;;5049748;28;20059;-79
2022/03/10 14:58:38;;;;;;;21.85;13.73;;;15.10;51.00;;;;;;5073350;28;20387;-79
2022/03/10 15:01:06;;;;;;;21.13;14.73;;;15.00;50.80;;;;;;5070740;28;20032;-79
2022/03/10 15:03:32;;;;;;;28.35;15.27;;;15.00;51.10;;;;;;5071682;28;20083;-79
2022/03/10 15:05:59;;;;;;;23.88;13.95;;;15.00;50.70;;;;;;5057702;28;20039;-79
2022/03/10 15:08:29;;;;;;;22.67;15.10;;;15.00;50.70;;;;;;5054019;28;20484;-79
2022/03/10 15:10:55;;;;;;;26.85;16.42;;;14.90;50.80;;;;;;5048462;28;20028;-79
2022/03/10 15:13:25;;;;;;;24.85;14.73;;;14.90;50.60;;;;;;5073329;28;20045;-79
2022/03/10 15:15:51;;;;;;;24.75;15.85;;;14.90;50.80;;;;;;5071154;28;20134;-79
2022/03/10 15:18:19;;;;;;;23.98;15.60;;;14.90;50.80;;;;;;5087389;28;20035;-79
2022/03/10 15:20:47;;;;;;;24.90;15.60;;;14.90;50.80;;;;;;5051208;28;20036;-79
2022/03/10 15:23:14;;;;;;;24.48;16.67;;;14.90;51.00;;;;;;5084450;28;20395;-80
2022/03/10 15:25:41;;;;;;;27.13;15.65;;;14.80;51.10;;;;;;5084096;28;20064;-79
2022/03/10 15:28:13;;;;;;;26.25;16.75;;;14.80;51.20;;;;;;5067334;28;20061;-79
2022/03/10 15:30:41;;;;;;;28.35;18.08;;;14.80;51.30;;;;;;5065562;28;20040;-79
2022/03/10 15:33:09;;;;;;;26.40;16.40;;;14.80;51.20;;;;;;5050953;28;20051;-79
2022/03/10 15:35:40;;;;;;;30.25;18.05;;;14.80;51.00;;;;;;5065070;28;20051;-79
2022/03/10 15:38:06;;;;;;;29.27;17.83;;;14.80;50.10;;;;;;5052656;28;20059;-79
2022/03/10 15:40:33;;;;;;;29.88;17.67;;;14.80;50.10;;;;;;5080511;28;20504;-79
2022/03/10 15:43:06;;;;;;;27.30;16.80;;;14.80;49.90;;;;;;5048318;28;20028;-80
2022/03/10 15:45:33;;;;;;;25.73;17.25;;;14.80;49.30;;;;;;5064699;28;20054;-80